• Join FlightAware (Why Join?)
  • Login
  • US Flag 
09:51PM EST


 

Airport Tracker/Info


-or-


 

Live Flight TrackerFlight Track Log ✈ TAM3420 ✈ 18-Jul-2013 ✈ SBBE / BEL - SBSN / STM

Flight Track Log - Related Links

Times and Time Zones

All times are in EDT time to prevent confusion due to time zone crossing. See the TAM3420 flight status page for this flight to view local times or setup timezone preferences in your user account.

Time Position Orientation Groundspeed Altitude Reporting Facility
EDT Latitude Longitude Course Direction KTS MPH feet Rate Location/Type
02:14PM -1.3790 -48.4760 North 150 173  Level FlightAware
02:14PM -1.3670 -48.4630 47° Northeast 163 188 800 1,860 Climbing FlightAware
02:15PM -1.3490 -48.4450 45° Northeast 162 186 1,900 2,040 Climbing FlightAware
02:15PM -1.3450 -48.4420 37° Northeast 162 186 2,100 1,680 Climbing FlightAware
02:15PM -1.3270 -48.4240 45° Northeast 191 220 2,900 1,740 Climbing FlightAware
02:16PM -1.3090 -48.4230 North 203 234 3,700 2,220 Climbing FlightAware
02:16PM -1.2970 -48.4360 313° West 205 236 4,400 2,280 Climbing FlightAware
02:16PM -1.2950 -48.4440 284° West 210 242 4,700 1,320 Climbing FlightAware
02:17PM -1.3100 -48.4760 245° Southwest 244 281 5,400 1,560 Climbing FlightAware
02:17PM -1.3300 -48.5030 233° Southwest 275 316 6,300 1,920 Climbing FlightAware
02:18PM -1.3470 -48.5250 232° Southwest 297 342 7,100 2,640 Climbing FlightAware
02:18PM -1.3700 -48.5520 230° Southwest 300 345 8,400 3,240 Climbing FlightAware
02:18PM -1.3850 -48.5690 229° Southwest 304 350 9,100 2,460 Climbing FlightAware
02:19PM -1.3950 -48.6060 255° West 320 368 10,200 1,740 Climbing FlightAware
02:21PM -1.4192 -48.7503 260° West  Level Estimated
02:22PM -1.4337 -48.8368 260° West  Level Estimated
02:23PM -1.4482 -48.9234 260° West  Level Estimated
02:24PM -1.4627 -49.0099 260° West  Level Estimated
02:25PM -1.4772 -49.0965 260° West  Level Estimated
02:26PM -1.4918 -49.1830 260° West  Level Estimated
02:27PM -1.5063 -49.2696 260° West  Level Estimated
02:28PM -1.5208 -49.3562 260° West  Level Estimated
02:29PM -1.5352 -49.4427 260° West  Level Estimated
02:29PM -1.5290 -49.5790 260° West 445 512 26,800  Level FlightAware
02:29PM -1.5570 -49.7340 260° West 451 519 27,600 1,200 Climbing FlightAware
02:30PM -1.5720 -49.8180 260° West 457 526 28,300 960 Climbing FlightAware
02:31PM -1.5920 -49.9290 260° West 469 540 29,100 840 Climbing FlightAware
02:31PM -1.6090 -50.0230 260° West 479 551 29,700 840 Climbing FlightAware
02:32PM -1.6240 -50.1040 260° West 484 557 30,300 960 Climbing FlightAware
02:33PM -1.6410 -50.1990 260° West 487 560 31,000 1,380 Climbing FlightAware
02:33PM -1.6560 -50.2840 260° West 478 550 32,200 1,800 Climbing FlightAware
02:34PM -1.6760 -50.3950 260° West 462 532 33,800 1,740 Climbing FlightAware
02:35PM -1.6970 -50.5080 259° West 445 512 35,400 1,320 Climbing FlightAware
02:36PM -1.7130 -50.5960 260° West 449 517 36,000 420 Climbing FlightAware
02:36PM -1.7250 -50.6630 260° West 446 513 36,000  Level FlightAware
02:37PM -1.7400 -50.7480 260° West 450 518 36,000  Level FlightAware
02:38PM -1.7540 -50.8280 260° West 451 519 36,000  Level FlightAware
02:38PM -1.7690 -50.9120 260° West 451 519 36,000  Level FlightAware
02:39PM -1.7860 -51.0030 259° West 450 518 36,000  Level FlightAware
02:40PM -1.8030 -51.0970 260° West 448 516 36,000  Level FlightAware
02:41PM -1.8180 -51.1820 260° West 447 514 36,000  Level FlightAware
02:41PM -1.8300 -51.2480 260° West 445 512 36,000  Level FlightAware
02:42PM -1.8440 -51.3270 260° West 444 511 36,000  Level FlightAware
02:43PM -1.8610 -51.4210 260° West 442 509 36,000  Level FlightAware
02:43PM -1.8750 -51.5000 260° West 441 507 36,000  Level FlightAware
02:44PM -1.8900 -51.5830 260° West 440 506 36,000  Level FlightAware
02:45PM -1.9050 -51.6640 260° West 440 506 36,000  Level FlightAware
02:45PM -1.9190 -51.7430 260° West 440 506 36,000  Level FlightAware
02:46PM -1.9380 -51.8500 260° West 438 504 36,000  Level FlightAware
02:47PM -1.9530 -51.9320 260° West 438 504 36,000  Level FlightAware
02:47PM -1.9620 -51.9830 260° West 437 503 36,000  Level FlightAware
02:48PM -1.9760 -52.0620 260° West 437 503 36,000  Level FlightAware
02:49PM -1.9900 -52.1430 260° West 437 503 36,000  Level FlightAware
02:49PM -2.0040 -52.2250 260° West 436 502 36,000  Level FlightAware
02:50PM -2.0150 -52.2950 261° West 436 502 36,000  Level FlightAware
02:51PM -2.0270 -52.3620 260° West 436 502 36,000  Level FlightAware
02:52PM -2.0280 -52.3660 256° West 435 501 36,000  Level FlightAware
02:52PM -2.0630 -52.5850 261° West 434 499 36,000  Level FlightAware
02:53PM -2.0770 -52.6680 260° West 435 501 36,000 -1,080 Level FlightAware
02:54PM -2.0890 -52.7420 261° West 448 516 34,600 -840 Descending FlightAware
02:55PM -2.1080 -52.8520 260° West 448 516 34,600  Level FlightAware
02:55PM -2.1190 -52.9160 260° West 448 516 34,600  Level FlightAware
02:56PM -2.1340 -52.9990 260° West 448 516 34,600  Level FlightAware
02:57PM -2.1450 -53.0620 260° West 448 516 34,600  Level FlightAware
02:58PM -2.1600 -53.1450 260° West 448 516 34,600  Level FlightAware
02:58PM -2.1710 -53.2080 260° West 448 516 34,600  Level FlightAware
02:59PM -2.1860 -53.2910 260° West 448 516 34,600  Level FlightAware
03:00PM -2.1970 -53.3550 260° West 448 516 34,600  Level FlightAware
03:01PM -2.2150 -53.4560 260° West 448 516 34,600  Level FlightAware
03:01PM -2.2260 -53.5180 260° West 448 516 34,600  Level FlightAware
03:02PM -2.2400 -53.6020 261° West 448 516 34,600  Level FlightAware
03:03PM -2.2520 -53.6660 259° West 448 516 34,600  Level FlightAware
03:03PM -2.2670 -53.7510 260° West 448 516 34,600  Level FlightAware
03:06PM -2.2947 -53.9363 261° West  Level Estimated
03:07PM -2.3077 -54.0231 261° West  Level Estimated
03:08PM -2.3207 -54.1099 261° West  Level Estimated
03:09PM -2.3336 -54.1968 262° West  Level Estimated
03:10PM -2.3466 -54.2836 262° West  Level Estimated
03:11PM -2.3595 -54.3705 262° West  Level Estimated
03:12PM -2.3725 -54.4573 262° West  Level Estimated
03:13PM -2.3854 -54.5442 262° West  Level Estimated
03:14PM -2.3984 -54.6310 262° West  Level Estimated
03:15PM -2.4113 -54.7179 262° West  Level Estimated
03:16PM -2.4224 -54.7928 262° West  Level Estimated
03:17PM -2.4224 -54.7928 135° Southeast  Level Estimated
03:18PM -2.4224 -54.7928 135° Southeast  Level Estimated
03:19PM -2.4224 -54.7928 135° Southeast  Level Estimated
03:20PM -2.4224 -54.7928 135° Southeast  Level Estimated
03:21PM -2.4224 -54.7928 135° Southeast  Level Estimated
03:22PM -2.4224 -54.7928 135° Southeast  Level Estimated
03:23PM -2.4224 -54.7928 135° Southeast  Level Estimated
03:24PM -2.4224 -54.7928 135° Southeast  Level Estimated
03:25PM -2.4224 -54.7928 135° Southeast  Level Estimated
03:26PM -2.4224 -54.7928 135° Southeast  Level Estimated
03:27PM -2.4224 -54.7928 135° Southeast  Level Estimated
03:28PM -2.4224 -54.7928 135° Southeast  Level Estimated
03:29PM -2.4224 -54.7928 135° Southeast  Level Estimated
03:30PM -2.4224 -54.7928 135° Southeast  Level Estimated
03:31PM -2.4224 -54.7928 135° Southeast  Level Estimated
03:32PM -2.4224 -54.7928 135° Southeast  Level Estimated
03:33PM -2.4224 -54.7928 135° Southeast  Level Estimated
03:34PM -2.4224 -54.7928 135° Southeast  Level Estimated